createdAt,value
2022-10-08T00:00:11.251Z,11.49
2022-10-08T00:02:39.287Z,11.48
2022-10-08T00:05:08.150Z,11.46
2022-10-08T00:07:36.145Z,11.38
2022-10-08T00:10:06.328Z,11.29
2022-10-08T00:12:34.311Z,11.23
2022-10-08T00:15:02.267Z,11.14
2022-10-08T00:17:31.558Z,10.89
2022-10-08T00:19:59.533Z,11.05
2022-10-08T00:22:27.493Z,11.07
2022-10-08T00:24:55.602Z,11.03
2022-10-08T00:27:24.435Z,10.99
2022-10-08T00:29:53.086Z,10.97
2022-10-08T00:32:21.040Z,10.75
2022-10-08T00:34:50.406Z,10.91
2022-10-08T00:37:18.379Z,10.87
2022-10-08T00:39:46.323Z,10.84
2022-10-08T00:42:14.284Z,10.84
2022-10-08T00:44:50.845Z,10.83
2022-10-08T00:47:20.263Z,10.81
2022-10-08T00:49:51.168Z,10.81
2022-10-08T00:52:19.129Z,10.79
2022-10-08T00:54:50.228Z,10.78
2022-10-08T00:57:18.399Z,10.73
2022-10-08T00:59:46.347Z,10.70
2022-10-08T01:02:14.508Z,10.69
2022-10-08T01:04:42.728Z,10.60
2022-10-08T01:07:14.135Z,10.66
2022-10-08T01:09:43.481Z,10.63
2022-10-08T01:12:13.295Z,10.60
2022-10-08T01:14:45.064Z,10.58
2022-10-08T01:17:15.652Z,10.58
2022-10-08T01:19:57.610Z,10.57
2022-10-08T01:22:36.246Z,10.56
2022-10-08T01:25:29.125Z,10.50
2022-10-08T01:28:01.031Z,10.46
2022-10-08T01:30:29.038Z,10.44
2022-10-08T01:32:59.148Z,10.41
2022-10-08T01:35:29.520Z,10.38
2022-10-08T01:37:57.872Z,10.37
2022-10-08T01:40:29.139Z,10.43
2022-10-08T01:42:58.725Z,10.48
2022-10-08T01:45:28.414Z,10.42
2022-10-08T01:47:56.428Z,10.53
2022-10-08T01:50:28.235Z,10.55
2022-10-08T01:52:57.404Z,10.52
2022-10-08T01:55:26.749Z,10.61
2022-10-08T01:57:55.252Z,10.66
2022-10-08T02:00:24.645Z,10.68
2022-10-08T02:02:52.726Z,10.70
2022-10-08T02:05:20.670Z,10.68
2022-10-08T02:07:50.191Z,10.66
2022-10-08T02:10:18.995Z,10.64
2022-10-08T02:12:47.091Z,10.53
2022-10-08T02:15:16.516Z,10.53
2022-10-08T02:17:51.848Z,10.44
2022-10-08T02:20:21.046Z,10.40
2022-10-08T02:22:53.611Z,10.39
2022-10-08T02:25:24.303Z,10.28
2022-10-08T02:27:55.360Z,10.20
2022-10-08T02:30:23.325Z,10.24
2022-10-08T02:32:54.645Z,10.10
2022-10-08T02:35:25.499Z,10.14
2022-10-08T02:37:56.542Z,10.02
2022-10-08T02:40:25.116Z,10.03
2022-10-08T02:42:54.409Z,9.97
2022-10-08T02:45:24.435Z,9.79
2022-10-08T02:47:55.379Z,9.88
2022-10-08T02:50:24.344Z,9.69
2022-10-08T02:52:52.320Z,9.80
2022-10-08T02:55:25.084Z,9.70
2022-10-08T02:57:56.271Z,9.75
2022-10-08T03:00:24.377Z,9.75
2022-10-08T03:02:56.998Z,9.72
2022-10-08T03:05:24.944Z,9.71
2022-10-08T03:07:52.913Z,9.67
2022-10-08T03:10:24.591Z,9.65
2022-10-08T03:12:52.586Z,9.57
2022-10-08T03:15:20.862Z,9.52
2022-10-08T03:17:48.801Z,9.54
2022-10-08T03:20:18.138Z,9.51
2022-10-08T03:22:46.365Z,9.51
2022-10-08T03:25:14.466Z,9.48
2022-10-08T03:27:42.458Z,9.47
2022-10-08T03:30:12.120Z,9.46
2022-10-08T03:32:40.105Z,9.36
2022-10-08T03:35:08.382Z,9.24
2022-10-08T03:37:37.706Z,9.22
2022-10-08T03:40:06.442Z,9.24
2022-10-08T03:42:34.456Z,9.23
2022-10-08T03:45:02.448Z,9.27
2022-10-08T03:47:30.474Z,9.26
2022-10-08T03:49:58.461Z,9.32
2022-10-08T03:52:26.419Z,9.30
2022-10-08T03:54:55.761Z,9.32
2022-10-08T03:57:23.746Z,9.37
2022-10-08T03:59:51.844Z,9.39
2022-10-08T04:02:19.892Z,9.40
2022-10-08T04:04:47.900Z,9.34
2022-10-08T04:07:15.897Z,9.31
2022-10-08T04:09:43.869Z,9.38
2022-10-08T04:12:13.215Z,9.39
2022-10-08T04:14:41.205Z,9.40
2022-10-08T04:17:09.243Z,9.39
2022-10-08T04:19:37.177Z,9.37
2022-10-08T04:22:05.196Z,9.36
2022-10-08T04:24:33.115Z,9.30
2022-10-08T04:27:01.188Z,9.31
2022-10-08T04:29:30.503Z,9.33
2022-10-08T04:31:58.485Z,9.40
2022-10-08T04:34:26.429Z,9.41
2022-10-08T04:36:54.351Z,9.51
2022-10-08T04:39:22.366Z,9.56
2022-10-08T04:41:50.397Z,9.61
2022-10-08T04:44:18.365Z,9.64
2022-10-08T04:46:47.799Z,9.72
2022-10-08T04:49:15.860Z,9.80
2022-10-08T04:51:43.881Z,9.93
2022-10-08T04:54:11.848Z,10.19
2022-10-08T04:56:39.799Z,10.51
2022-10-08T04:59:07.809Z,10.82
2022-10-08T05:01:35.815Z,11.17
2022-10-08T05:04:05.253Z,11.51
2022-10-08T05:06:33.231Z,11.76
2022-10-08T05:09:03.189Z,11.80
2022-10-08T05:11:31.319Z,11.88
2022-10-08T05:13:59.698Z,11.87
2022-10-08T05:16:27.736Z,11.96
2022-10-08T05:18:55.754Z,12.10
2022-10-08T05:21:26.640Z,12.35
2022-10-08T05:23:55.847Z,12.61
2022-10-08T05:26:41.611Z,12.79
2022-10-08T05:29:12.973Z,12.98
2022-10-08T05:31:40.900Z,13.29
2022-10-08T05:34:08.971Z,13.56
2022-10-08T05:36:38.322Z,13.63
2022-10-08T05:39:06.400Z,13.81
2022-10-08T05:41:35.448Z,13.87
2022-10-08T05:44:03.507Z,14.03
2022-10-08T05:46:32.693Z,14.02
2022-10-08T05:49:01.524Z,13.93
2022-10-08T05:51:29.584Z,13.98
2022-10-08T05:53:59.861Z,13.90
2022-10-08T05:56:28.496Z,13.92
2022-10-08T05:58:56.487Z,14.01
2022-10-08T06:01:25.486Z,14.11
2022-10-08T06:03:54.220Z,14.30
2022-10-08T06:06:22.854Z,14.50
2022-10-08T06:08:54.356Z,14.60
2022-10-08T06:11:23.707Z,14.82
2022-10-08T06:13:53.392Z,14.74
2022-10-08T06:16:21.519Z,14.71
2022-10-08T06:18:49.566Z,14.68
2022-10-08T06:21:18.162Z,15.00
2022-10-08T06:23:46.976Z,14.89
2022-10-08T06:26:14.947Z,15.18
2022-10-08T06:28:44.343Z,15.38
2022-10-08T06:31:12.470Z,15.39
2022-10-08T06:33:40.469Z,15.57
2022-10-08T06:36:09.400Z,15.71
2022-10-08T06:38:37.375Z,15.86
2022-10-08T06:41:05.389Z,15.94
2022-10-08T06:43:33.417Z,15.94
2022-10-08T06:46:05.199Z,16.04
2022-10-08T06:48:33.258Z,16.21
2022-10-08T06:51:01.677Z,16.45
2022-10-08T06:53:29.687Z,16.42
2022-10-08T06:55:58.479Z,16.52
2022-10-08T06:58:26.601Z,16.34
2022-10-08T07:01:03.887Z,16.59
2022-10-08T07:03:32.038Z,16.83
2022-10-08T07:06:01.541Z,16.95
2022-10-08T07:08:29.668Z,17.11
2022-10-08T07:11:02.933Z,17.21
2022-10-08T07:13:30.949Z,17.26
2022-10-08T07:16:03.922Z,17.17
2022-10-08T07:18:32.261Z,17.16
2022-10-08T07:21:00.236Z,17.18
2022-10-08T07:23:28.252Z,17.26
2022-10-08T07:25:57.778Z,17.33
2022-10-08T07:28:25.916Z,17.26
2022-10-08T07:30:53.948Z,17.43
2022-10-08T07:33:23.446Z,17.64
2022-10-08T07:35:51.445Z,17.82
2022-10-08T07:38:19.926Z,17.82
2022-10-08T07:40:50.033Z,18.03
2022-10-08T07:43:19.885Z,18.02
2022-10-08T07:45:47.928Z,17.94
2022-10-08T07:48:16.582Z,17.94
2022-10-08T07:50:45.883Z,17.98
2022-10-08T07:53:13.859Z,17.98
2022-10-08T07:55:41.865Z,18.04
2022-10-08T07:58:09.969Z,18.21
2022-10-08T08:00:40.007Z,18.31
2022-10-08T08:03:08.028Z,18.44
2022-10-08T08:05:36.188Z,18.63
2022-10-08T08:08:05.564Z,18.68
2022-10-08T08:10:33.623Z,18.70
2022-10-08T08:13:01.673Z,18.76
2022-10-08T08:15:29.611Z,18.87
2022-10-08T08:17:57.631Z,18.87
2022-10-08T08:20:25.583Z,19.02
2022-10-08T08:22:53.572Z,19.28
2022-10-08T08:25:22.907Z,19.36
2022-10-08T08:27:50.857Z,19.42
2022-10-08T08:30:18.928Z,19.49
2022-10-08T08:32:47.097Z,19.71
2022-10-08T08:35:15.282Z,19.89
2022-10-08T08:37:43.277Z,19.88
2022-10-08T08:40:11.806Z,20.14
2022-10-08T08:42:48.447Z,20.22
2022-10-08T08:45:45.489Z,20.25
2022-10-08T08:48:16.424Z,20.42
2022-10-08T08:50:48.490Z,20.29
2022-10-08T08:53:16.822Z,20.24
2022-10-08T08:55:46.205Z,20.25
2022-10-08T08:58:22.485Z,20.31
2022-10-08T09:00:54.557Z,20.45
2022-10-08T09:03:23.768Z,20.57
2022-10-08T09:05:53.438Z,20.71
2022-10-08T09:08:22.470Z,20.83
2022-10-08T09:10:53.673Z,21.00
2022-10-08T09:13:25.743Z,21.07
2022-10-08T09:15:55.268Z,21.24
2022-10-08T09:18:23.230Z,21.30
2022-10-08T09:20:51.184Z,21.40
2022-10-08T09:23:19.866Z,21.55
2022-10-08T09:25:50.911Z,21.52
2022-10-08T09:28:41.794Z,21.71
2022-10-08T09:31:21.253Z,21.87
2022-10-08T09:33:55.476Z,21.97
2022-10-08T09:36:31.183Z,22.11
2022-10-08T09:38:59.386Z,22.14
2022-10-08T09:41:28.917Z,22.21
2022-10-08T09:44:12.915Z,22.27
2022-10-08T09:46:40.857Z,22.33
2022-10-08T09:49:28.534Z,22.37
2022-10-08T09:51:57.428Z,22.43
2022-10-08T09:54:26.426Z,22.35
2022-10-08T09:56:54.899Z,22.39
2022-10-08T09:59:24.819Z,22.56
2022-10-08T10:01:53.190Z,22.56
2022-10-08T10:04:22.054Z,22.63
2022-10-08T10:06:50.120Z,22.65
2022-10-08T10:09:26.472Z,22.71
2022-10-08T10:11:55.677Z,22.76
2022-10-08T10:14:26.926Z,23.26
2022-10-08T10:16:57.677Z,23.52
2022-10-08T10:19:26.944Z,23.62
2022-10-08T10:21:57.957Z,23.70
2022-10-08T10:24:37.445Z,23.47
2022-10-08T10:27:08.438Z,23.35
2022-10-08T10:29:45.620Z,23.80
2022-10-08T10:32:16.929Z,24.20
2022-10-08T10:34:51.307Z,23.91
2022-10-08T10:37:22.202Z,23.99
2022-10-08T10:39:52.662Z,24.09
2022-10-08T10:42:22.309Z,24.48
2022-10-08T10:44:53.570Z,24.88
2022-10-08T10:47:22.405Z,25.12
2022-10-08T10:49:51.203Z,24.88
2022-10-08T10:52:33.944Z,24.78
2022-10-08T10:55:22.535Z,24.46
2022-10-08T10:58:08.417Z,23.63
2022-10-08T11:00:41.581Z,23.64
2022-10-08T11:03:12.023Z,23.50
2022-10-08T11:05:40.080Z,23.25
2022-10-08T11:08:25.553Z,23.35
2022-10-08T11:10:59.071Z,23.73
2022-10-08T11:13:45.381Z,23.90
2022-10-08T11:16:23.003Z,24.26
2022-10-08T11:18:52.576Z,24.55
2022-10-08T11:21:28.796Z,24.84
2022-10-08T11:24:05.202Z,25.07
2022-10-08T11:26:34.855Z,25.03
2022-10-08T11:29:07.365Z,24.72
2022-10-08T11:31:41.339Z,24.57
2022-10-08T11:34:17.455Z,24.53
2022-10-08T11:36:48.270Z,24.45
2022-10-08T11:39:18.490Z,24.91
2022-10-08T11:41:49.430Z,26.59
2022-10-08T11:44:17.466Z,27.46
2022-10-08T11:46:46.808Z,29.22
2022-10-08T11:49:49.795Z,29.65
2022-10-08T11:52:18.007Z,30.09
2022-10-08T11:54:54.487Z,30.41
2022-10-08T11:57:24.893Z,30.47
2022-10-08T11:59:57.227Z,30.42
2022-10-08T12:02:28.823Z,29.84
2022-10-08T12:04:58.552Z,28.86
2022-10-08T12:07:29.538Z,27.64
2022-10-08T12:10:24.498Z,26.71
2022-10-08T12:13:22.796Z,25.68
2022-10-08T12:15:52.443Z,25.05
2022-10-08T12:18:54.945Z,24.42
2022-10-08T12:21:53.003Z,23.91
2022-10-08T12:24:53.739Z,23.47
2022-10-08T12:27:40.034Z,23.14
2022-10-08T12:30:09.896Z,23.10
2022-10-08T12:32:55.354Z,22.98
2022-10-08T12:35:27.361Z,23.02
2022-10-08T12:38:11.435Z,23.18
2022-10-08T12:40:41.867Z,23.44
2022-10-08T12:43:18.750Z,23.30
2022-10-08T12:45:55.603Z,23.48
2022-10-08T12:48:32.130Z,23.53
2022-10-08T12:51:09.932Z,23.51
2022-10-08T12:53:37.890Z,23.24
2022-10-08T12:56:05.871Z,23.11
2022-10-08T12:58:35.532Z,22.96
2022-10-08T13:01:04.483Z,22.83
2022-10-08T13:03:32.462Z,22.70
2022-10-08T13:06:09.594Z,22.62
2022-10-08T13:08:38.825Z,22.57
2022-10-08T13:11:09.088Z,22.57
2022-10-08T13:13:43.740Z,22.61
2022-10-08T13:16:13.437Z,22.76
2022-10-08T13:18:42.534Z,23.00
2022-10-08T13:21:35.379Z,23.07
2022-10-08T13:24:04.206Z,23.28
2022-10-08T13:26:39.481Z,23.36
2022-10-08T13:29:32.852Z,23.47
2022-10-08T13:32:02.615Z,23.58
2022-10-08T13:34:32.315Z,23.67
2022-10-08T13:37:02.674Z,23.63
2022-10-08T13:39:31.716Z,23.49
2022-10-08T13:42:00.989Z,23.34
2022-10-08T13:44:29.201Z,23.12
2022-10-08T13:47:01.297Z,23.06
2022-10-08T13:49:31.411Z,22.81
2022-10-08T13:51:59.428Z,22.76
2022-10-08T13:54:30.369Z,22.65
2022-10-08T13:56:58.478Z,22.59
2022-10-08T13:59:30.466Z,22.46
2022-10-08T14:01:58.767Z,22.35
2022-10-08T14:04:27.121Z,22.33
2022-10-08T14:06:56.011Z,22.28
2022-10-08T14:09:24.971Z,22.25
2022-10-08T14:11:57.011Z,22.16
2022-10-08T14:14:25.070Z,22.03
2022-10-08T14:16:53.342Z,21.92
2022-10-08T14:19:21.625Z,21.83
2022-10-08T14:21:49.892Z,21.74
2022-10-08T14:24:17.836Z,21.71
2022-10-08T14:26:45.780Z,21.59
2022-10-08T14:29:15.137Z,21.47
2022-10-08T14:31:43.127Z,21.40
2022-10-08T14:34:11.058Z,21.33
2022-10-08T14:36:40.080Z,21.27
2022-10-08T14:39:08.230Z,21.21
2022-10-08T14:41:36.240Z,21.07
2022-10-08T14:44:04.252Z,21.01
2022-10-08T14:46:33.634Z,20.97
2022-10-08T14:49:02.807Z,20.90
2022-10-08T14:51:37.467Z,20.83
2022-10-08T14:54:06.389Z,20.73
2022-10-08T14:56:34.368Z,20.65
2022-10-08T14:59:02.378Z,20.50
2022-10-08T15:01:32.599Z,20.44
2022-10-08T15:04:02.009Z,20.38
2022-10-08T15:06:30.034Z,20.29
2022-10-08T15:08:57.984Z,20.19
2022-10-08T15:11:26.094Z,20.11
2022-10-08T15:13:54.167Z,20.00
2022-10-08T15:16:22.242Z,19.81
2022-10-08T15:18:50.399Z,19.78
2022-10-08T15:21:20.028Z,19.68
2022-10-08T15:23:48.000Z,19.54
2022-10-08T15:26:16.833Z,19.47
2022-10-08T15:28:46.196Z,19.40
2022-10-08T15:31:15.229Z,19.29
2022-10-08T15:33:44.054Z,19.05
2022-10-08T15:36:20.129Z,19.05
2022-10-08T15:38:48.322Z,18.91
2022-10-08T15:41:17.532Z,18.76
2022-10-08T15:43:45.696Z,18.58
2022-10-08T15:46:16.177Z,18.41
2022-10-08T15:48:44.238Z,18.24
2022-10-08T15:51:12.968Z,18.09
2022-10-08T15:53:42.369Z,17.95
2022-10-08T15:56:11.926Z,17.79
2022-10-08T15:58:50.332Z,17.63
2022-10-08T16:01:20.255Z,17.46
2022-10-08T16:03:49.042Z,17.31
2022-10-08T16:06:18.189Z,17.18
2022-10-08T16:08:47.583Z,17.04
2022-10-08T16:11:16.283Z,16.89
2022-10-08T16:13:44.296Z,16.76
2022-10-08T16:16:15.145Z,16.64
2022-10-08T16:18:43.427Z,16.53
2022-10-08T16:21:11.543Z,16.43
2022-10-08T16:23:39.516Z,16.29
2022-10-08T16:26:10.391Z,16.14
2022-10-08T16:28:39.307Z,16.02
2022-10-08T16:31:07.645Z,15.90
2022-10-08T16:33:35.643Z,15.80
2022-10-08T16:36:04.058Z,15.71
2022-10-08T16:38:32.034Z,15.58
2022-10-08T16:41:12.557Z,15.49
2022-10-08T16:43:40.559Z,15.42
2022-10-08T16:46:15.073Z,15.34
2022-10-08T16:48:43.068Z,15.23
2022-10-08T16:51:11.785Z,15.14
2022-10-08T16:53:39.765Z,15.04
2022-10-08T16:56:07.835Z,14.95
2022-10-08T16:58:37.202Z,14.87
2022-10-08T17:01:08.593Z,14.80
2022-10-08T17:03:36.915Z,14.72
2022-10-08T17:06:05.410Z,14.68
2022-10-08T17:08:33.432Z,14.60
2022-10-08T17:11:04.860Z,14.56
2022-10-08T17:13:32.853Z,14.51
2022-10-08T17:16:02.894Z,14.43
2022-10-08T17:18:32.356Z,14.39
2022-10-08T17:21:00.708Z,14.34
2022-10-08T17:23:33.886Z,14.26
2022-10-08T17:26:04.442Z,14.21
2022-10-08T17:28:33.458Z,14.16
2022-10-08T17:31:03.330Z,14.12
2022-10-08T17:33:35.480Z,14.07
2022-10-08T17:36:04.877Z,14.05
2022-10-08T17:38:32.920Z,13.96
2022-10-08T17:41:00.908Z,13.95
2022-10-08T17:43:28.933Z,13.89
2022-10-08T17:45:56.982Z,13.84
2022-10-08T17:48:26.421Z,13.79
2022-10-08T17:50:54.402Z,13.74
2022-10-08T17:53:22.395Z,13.70
2022-10-08T17:55:59.024Z,13.74
2022-10-08T17:58:27.026Z,13.67
2022-10-08T18:00:55.148Z,13.60
2022-10-08T18:03:23.137Z,13.59
2022-10-08T18:05:59.029Z,13.56
2022-10-08T18:08:27.090Z,13.54
2022-10-08T18:10:55.039Z,13.50
2022-10-08T18:13:23.041Z,13.46
2022-10-08T18:15:51.220Z,13.45
2022-10-08T18:18:19.241Z,13.41
2022-10-08T18:20:56.439Z,13.37
2022-10-08T18:23:25.999Z,13.33
2022-10-08T18:25:54.207Z,13.27
2022-10-08T18:28:22.394Z,13.09
2022-10-08T18:30:50.586Z,13.26
2022-10-08T18:33:22.711Z,13.22
2022-10-08T18:35:52.002Z,13.21
2022-10-08T18:38:20.053Z,13.20
2022-10-08T18:40:49.394Z,13.21
2022-10-08T18:43:17.333Z,13.18
2022-10-08T18:45:45.322Z,13.24
2022-10-08T18:48:13.263Z,13.17
2022-10-08T18:50:41.295Z,13.16
2022-10-08T18:53:09.256Z,13.18
2022-10-08T18:55:37.225Z,13.17
2022-10-08T18:58:06.564Z,13.13
2022-10-08T19:00:38.930Z,13.13
2022-10-08T19:03:06.979Z,13.11
2022-10-08T19:05:38.584Z,13.12
2022-10-08T19:08:06.551Z,13.10
2022-10-08T19:10:34.539Z,13.13
2022-10-08T19:13:02.523Z,13.05
2022-10-08T19:15:31.936Z,13.07
2022-10-08T19:17:59.944Z,13.01
2022-10-08T19:20:27.919Z,13.02
2022-10-08T19:22:55.838Z,13.00
2022-10-08T19:25:23.812Z,13.00
2022-10-08T19:27:51.788Z,12.97
2022-10-08T19:30:24.821Z,12.99
2022-10-08T19:32:55.309Z,13.04
2022-10-08T19:35:23.300Z,13.00
2022-10-08T19:37:51.275Z,12.97
2022-10-08T19:40:19.249Z,12.93
2022-10-08T19:42:47.537Z,12.90
2022-10-08T19:45:15.756Z,12.86
2022-10-08T19:47:43.835Z,12.82
2022-10-08T19:50:13.134Z,12.85
2022-10-08T19:52:41.100Z,12.88
2022-10-08T19:55:10.020Z,12.86
2022-10-08T19:57:38.175Z,12.82
2022-10-08T20:00:08.450Z,12.79
2022-10-08T20:02:36.520Z,12.81
2022-10-08T20:05:04.761Z,12.79
2022-10-08T20:07:34.144Z,12.76
2022-10-08T20:10:02.101Z,12.77
2022-10-08T20:12:30.061Z,12.78
2022-10-08T20:14:58.038Z,12.78
2022-10-08T20:17:25.983Z,12.79
2022-10-08T20:20:01.632Z,12.75
2022-10-08T20:22:43.388Z,12.73
2022-10-08T20:25:11.386Z,12.73
2022-10-08T20:27:39.336Z,12.70
2022-10-08T20:30:08.320Z,12.69
2022-10-08T20:32:36.300Z,12.70
2022-10-08T20:35:04.296Z,12.67
2022-10-08T20:37:32.459Z,12.68
2022-10-08T20:40:01.850Z,12.65
2022-10-08T20:42:29.921Z,12.64
2022-10-08T20:44:57.913Z,12.63
2022-10-08T20:47:25.877Z,12.63
2022-10-08T20:49:53.818Z,12.60
2022-10-08T20:52:21.771Z,12.64
2022-10-08T20:54:49.818Z,12.64
2022-10-08T20:57:19.158Z,12.61
2022-10-08T20:59:47.201Z,12.66
2022-10-08T21:02:19.508Z,12.62
2022-10-08T21:04:47.814Z,12.58
2022-10-08T21:07:15.811Z,12.57
2022-10-08T21:09:43.853Z,12.56
2022-10-08T21:12:11.788Z,12.53
2022-10-08T21:14:41.119Z,12.51
2022-10-08T21:17:09.056Z,12.49
2022-10-08T21:19:37.100Z,12.44
2022-10-08T21:22:07.817Z,12.43
2022-10-08T21:24:36.967Z,12.38
2022-10-08T21:27:05.129Z,12.34
2022-10-08T21:29:33.091Z,12.32
2022-10-08T21:32:02.526Z,12.26
2022-10-08T21:34:30.514Z,12.19
2022-10-08T21:36:58.455Z,12.11
2022-10-08T21:39:26.698Z,12.06
2022-10-08T21:41:55.101Z,11.95
2022-10-08T21:44:23.227Z,11.91
2022-10-08T21:46:51.178Z,11.83
2022-10-08T21:49:21.038Z,11.77
2022-10-08T21:51:49.030Z,11.68
2022-10-08T21:54:17.189Z,11.68
2022-10-08T21:56:45.552Z,11.55
2022-10-08T21:59:14.234Z,11.59
2022-10-08T22:01:43.655Z,11.57
2022-10-08T22:04:12.313Z,11.54
2022-10-08T22:06:42.719Z,11.50
2022-10-08T22:09:12.012Z,11.52
2022-10-08T22:11:40.309Z,11.55
2022-10-08T22:14:08.296Z,11.45
2022-10-08T22:16:36.359Z,11.51
2022-10-08T22:19:04.434Z,11.49
2022-10-08T22:21:32.430Z,11.49
2022-10-08T22:24:01.776Z,11.43
2022-10-08T22:26:30.700Z,11.29
2022-10-08T22:28:58.655Z,11.39
2022-10-08T22:31:26.822Z,11.35
2022-10-08T22:33:54.914Z,11.29
2022-10-08T22:36:23.871Z,11.18
2022-10-08T22:38:51.927Z,11.25
2022-10-08T22:41:22.313Z,11.15
2022-10-08T22:43:50.420Z,11.18
2022-10-08T22:46:19.281Z,11.19
2022-10-08T22:48:47.454Z,11.10
2022-10-08T22:51:16.080Z,11.08
2022-10-08T22:53:44.266Z,11.04
2022-10-08T22:56:13.332Z,11.01
2022-10-08T22:58:43.228Z,10.97
2022-10-08T23:01:11.895Z,10.92
2022-10-08T23:03:40.042Z,10.75
2022-10-08T23:06:09.206Z,10.82
2022-10-08T23:08:37.317Z,10.79
2022-10-08T23:11:05.405Z,10.80
2022-10-08T23:13:33.534Z,10.78
2022-10-08T23:16:03.578Z,10.76
2022-10-08T23:18:31.847Z,10.74
2022-10-08T23:21:02.122Z,10.73
2022-10-08T23:23:30.144Z,10.63
2022-10-08T23:25:58.359Z,10.47
2022-10-08T23:28:26.450Z,10.50
2022-10-08T23:30:54.427Z,10.51
2022-10-08T23:33:23.786Z,10.51
2022-10-08T23:35:55.246Z,10.44
2022-10-08T23:38:23.698Z,10.42
2022-10-08T23:40:51.778Z,10.42
2022-10-08T23:43:19.726Z,10.39
2022-10-08T23:45:47.750Z,10.44
2022-10-08T23:48:15.746Z,10.47
2022-10-08T23:50:45.102Z,10.29
2022-10-08T23:53:13.082Z,10.33
2022-10-08T23:55:41.035Z,10.35
2022-10-08T23:58:09.740Z,10.29
